»·PEaware :: JUS326 KJAC-KCPR

JUS326 :: KJAC-KCPR

FLIGHT INFORMATION

Flight Status: Arrived
Operator:
USA Jet
More flights by this operator :: More flights under this callsign
Pilot: Erik S. (3779)
Aircraft: BOEING 737-300
(B733)
More flights by this aircraft type
Origin: KJAC Jackson Hole
United States
Destination: KCPR Natrona Co Intl
United States
More flights between these airports :: More routes between these airports
Route: ALPNE2 KICNE DDY
File this flight plan on PilotEdge
Remarks:
Altitude:
(Current/Filed)
29,000ft
Speed:
(Current/Filed)
400kts
Departed: 02-Feb-18 08:21 AM
Arrived: 02-Feb-18 08:59 AM
Distance/Time
Traveled:
192nm/0:37
Distance/Time
To Go:
Arrived

Flight Plot

Page will automatically refresh every two minutes.

Flight plan parsing failed; only flown route is shown


Map Options




Map Legend


Flown Route
Filed Route
Departure Airport
Arrival Airport
Navaid (VOR, NDB)
Fix

Horizontal Profiles

Position Reports

Time Latitude Longitude Heading Altitude Ground
Speed
02-Feb-18 08:10 43.598460 -110.738317 109 6458ft 0kts
02-Feb-18 08:11 43.598460 -110.738317 109 6458ft 0kts
02-Feb-18 08:12 43.598460 -110.738317 109 6458ft 0kts
02-Feb-18 08:13 43.598460 -110.738317 109 6458ft 0kts
02-Feb-18 08:14 43.598460 -110.738317 109 6458ft 0kts
02-Feb-18 08:15 43.598433 -110.738722 70 6458ft 0kts
02-Feb-18 08:16 43.598433 -110.738722 70 6458ft 0kts
02-Feb-18 08:17 43.598433 -110.738722 70 6458ft 0kts
02-Feb-18 08:18 43.598433 -110.738722 70 6458ft 0kts
02-Feb-18 08:19 43.598466 -110.738606 66 6458ft 3kts
02-Feb-18 08:20 43.601362 -110.739009 20 6458ft 17kts
02-Feb-18 08:21 43.607229 -110.736240 17 6458ft 28kts
02-Feb-18 08:22 43.613589 -110.733080 19 6458ft 33kts
02-Feb-18 08:23 43.614776 -110.732558 352 6458ft 0kts
02-Feb-18 08:24 43.614776 -110.732558 352 6458ft 0kts
02-Feb-18 08:25 43.614776 -110.732558 352 6458ft 0kts
02-Feb-18 08:26 43.614835 -110.732572 349 6458ft 1kts
02-Feb-18 08:27 43.604007 -110.739273 202 6469ft 155kts
02-Feb-18 08:28 43.560391 -110.761412 209 9383ft 174kts
02-Feb-18 08:29 43.516503 -110.791117 208 11966ft 181kts
02-Feb-18 08:30 43.467863 -110.823559 209 14031ft 207kts
02-Feb-18 08:31 43.413831 -110.859204 210 15678ft 240kts
02-Feb-18 08:32 43.349541 -110.901599 210 16774ft 289kts
02-Feb-18 08:33 43.265167 -110.941179 177 17284ft 370kts
02-Feb-18 08:34 43.197382 -110.837963 95 19082ft 411kts
02-Feb-18 08:35 43.199326 -110.679593 92 20630ft 427kts
02-Feb-18 08:36 43.197724 -110.514523 90 22104ft 440kts
02-Feb-18 08:37 43.196519 -110.345510 90 23465ft 452kts
02-Feb-18 08:38 43.195293 -110.200318 89 24545ft 461kts
02-Feb-18 08:39 43.193228 -109.993485 89 25941ft 475kts
02-Feb-18 08:40 43.191542 -109.812942 89 27619ft 481kts
02-Feb-18 08:41 43.189278 -109.629489 88 29085ft 484kts
02-Feb-18 08:42 43.187193 -109.485271 89 29063ft 507kts
02-Feb-18 08:43 43.184373 -109.308874 89 29104ft 518kts
02-Feb-18 08:44 43.181404 -109.139305 88 29102ft 517kts
02-Feb-18 08:45 43.177658 -108.943100 88 29119ft 511kts
02-Feb-18 08:47 43.174756 -108.777397 88 29121ft 512kts
02-Feb-18 08:47 43.171243 -108.616214 88 29130ft 512kts
02-Feb-18 08:48 43.166653 -108.422079 88 29131ft 512kts
02-Feb-18 08:49 43.161734 -108.227937 88 29130ft 512kts
02-Feb-18 08:50 43.156631 -108.038808 89 28835ft 513kts
02-Feb-18 08:51 43.151471 -107.852176 89 26330ft 487kts
02-Feb-18 08:52 43.146455 -107.674115 90 23443ft 458kts
02-Feb-18 08:53 43.141091 -107.505141 90 20558ft 434kts
02-Feb-18 08:54 43.135755 -107.344220 90 17663ft 414kts
02-Feb-18 08:55 43.130468 -107.191253 91 14781ft 395kts
02-Feb-18 08:56 43.125230 -107.045221 91 11900ft 378kts
02-Feb-18 08:57 43.120136 -106.908315 91 10086ft 331kts
02-Feb-18 08:58 43.116199 -106.793131 92 9127ft 293kts
02-Feb-18 08:59 43.111899 -106.681912 92 9025ft 297kts
02-Feb-18 09:00 43.088346 -106.577837 118 7499ft 279kts
02-Feb-18 09:01 43.050888 -106.497094 139 7433ft 240kts
02-Feb-18 09:02 43.001058 -106.436754 141 7407ft 240kts
02-Feb-18 09:03 42.948321 -106.406103 211 7020ft 189kts
02-Feb-18 09:04 42.913273 -106.448860 227 5392ft 144kts
02-Feb-18 09:05 42.902498 -106.461941 144 5354ft 18kts
02-Feb-18 09:06 42.902393 -106.460501 46 5354ft 0kts
02-Feb-18 09:07 42.902542 -106.460285 46 5354ft 0kts
02-Feb-18 09:08 42.902611 -106.459736 132 5354ft 13kts
02-Feb-18 09:09 42.901534 -106.458913 217 5354ft 0kts
02-Feb-18 09:10 42.901534 -106.458913 217 5354ft 0kts
02-Feb-18 09:11 42.901534 -106.458913 217 5354ft 0kts
02-Feb-18 09:12 42.901534 -106.458913 217 5354ft 0kts

Navigation Log

Ident Type
Flight plan parsing failed, navigation log unavailable